Chard, United Kingdom
Current Conditions -  °F | °C
As of 10:50 PM on Wednesday 22 Oct 2014 (Local Time) from EGDY Reporting Station
Overcast Overcast  
Wind Chill: 54°   Ceiling: 2800
Heat Index: 54°   Visibility: 6mi
Dew Point: 46°   Wind: 7mph
Humidity: 77%   Direction: 220°SW
Pressure: 30.24"   Gusts: NA
Location:  50.87°N, 2.97°W
Report Text: EGDY 222150Z 22006KT 9999 OVC028 12/08 Q1024 BLU
Loading
Personal Weather Stations






























Interactive Weather Map
Tropical Storm Tracking
New forecast layout! Learn more

10-Day Weather Forecast

Advertisements
Track Severe Weather on mobile